Time;durP1;ratioP1;P1;durP2;ratioP2;P2;SDS_P1;SDS_P2;PMS_P1;PMS_P2;Temp;Humidity;BMP_temperature;BMP_pressure;BME280_temperature;BME280_humidity;BME280_pressure;Samples;Min_cycle;Max_cycle;Signal;HPM_P1;HPM_P2
2023/08/15 00:01:50;;;;;;;9.57;4.80;;;;;;;24.20;52.33;99514.41;4481890;31;33631;-86
2023/08/15 00:04:18;;;;;;;8.80;4.68;;;;;;;24.20;52.14;99519.72;4483503;32;33651;-86
2023/08/15 00:06:45;;;;;;;7.00;4.30;;;;;;;24.19;52.55;99523.31;4483676;32;34617;-87
2023/08/15 00:09:12;;;;;;;7.20;4.55;;;;;;;24.02;52.73;99525.72;4485518;31;33922;-86
2023/08/15 00:11:40;;;;;;;6.55;4.57;;;;;;;24.19;52.39;99522.44;4485361;31;34259;-86
2023/08/15 00:14:07;;;;;;;6.57;4.37;;;;;;;24.17;52.30;99518.97;4483635;32;35028;-87
2023/08/15 00:16:35;;;;;;;7.95;4.62;;;;;;;24.19;52.31;99523.31;4483512;32;34725;-86
2023/08/15 00:19:03;;;;;;;7.47;4.18;;;;;;;24.28;51.93;99522.09;4483233;31;34095;-87
2023/08/15 00:21:30;;;;;;;8.93;4.78;;;;;;;24.16;52.24;99518.09;4497393;31;33615;-87
2023/08/15 00:23:58;;;;;;;6.78;4.45;;;;;;;24.09;52.34;99513.97;4499406;31;34528;-86
2023/08/15 00:26:26;;;;;;;6.87;4.65;;;;;;;24.11;52.97;99512.13;4499298;31;33549;-87
2023/08/15 00:28:53;;;;;;;8.75;4.75;;;;;;;24.20;52.55;99506.47;4499266;31;33058;-87
2023/08/15 00:31:20;;;;;;;6.95;4.68;;;;;;;24.13;52.72;99502.34;4486418;31;34003;-87
2023/08/15 00:33:48;;;;;;;7.87;4.25;;;;;;;23.90;53.25;99510.25;4483231;32;34173;-86
2023/08/15 00:36:17;;;;;;;7.55;4.28;;;;;;;24.18;52.64;99510.97;4482838;32;34573;-86
2023/08/15 00:38:44;;;;;;;6.70;4.37;;;;;;;24.15;52.76;99504.94;4483261;32;33558;-86
2023/08/15 00:41:12;;;;;;;7.97;4.72;;;;;;;24.09;52.95;99506.00;4494155;31;34569;-87
2023/08/15 00:43:40;;;;;;;8.50;5.10;;;;;;;24.00;53.41;99511.66;4498080;31;33780;-86
2023/08/15 00:46:07;;;;;;;6.62;4.62;;;;;;;23.98;53.66;99508.19;4499032;31;34463;-86
2023/08/15 00:48:36;;;;;;;8.10;4.75;;;;;;;23.90;53.80;99503.19;4499057;31;34444;-86
2023/08/15 00:51:03;;;;;;;8.57;4.87;;;;;;;23.87;53.69;99505.09;4476897;31;34598;-86
2023/08/15 00:53:32;;;;;;;7.05;4.68;;;;;;;23.90;53.65;99505.81;4466277;32;33855;-86
2023/08/15 00:56:02;;;;;;;7.85;4.60;;;;;;;23.94;53.48;99495.97;4466319;32;34555;-86
2023/08/15 00:58:30;;;;;;;7.85;4.53;;;;;;;23.76;54.07;99503.69;4476101;31;34342;-86
2023/08/15 01:00:58;;;;;;;6.47;4.72;;;;;;;23.86;53.73;99503.34;4481834;32;33924;-86
2023/08/15 01:03:25;;;;;;;8.65;4.78;;;;;;;23.93;53.85;99495.12;4483134;32;34175;-86
2023/08/15 01:05:54;;;;;;;7.45;4.30;;;;;;;23.70;54.66;99495.09;4481683;32;34646;-86
2023/08/15 01:08:22;;;;;;;7.32;4.45;;;;;;;23.76;54.25;99502.84;4487058;31;34207;-87
2023/08/15 01:10:50;;;;;;;7.05;4.53;;;;;;;23.82;54.25;99509.69;4498684;31;33438;-87
2023/08/15 01:13:26;;;;;;;8.18;4.90;;;;;;;23.70;54.20;99500.38;4498878;31;33956;-86
2023/08/15 01:15:54;;;;;;;6.57;4.80;;;;;;;23.95;53.71;99498.59;4486048;31;34650;-86
2023/08/15 01:18:40;;;;;;;9.80;5.25;;;;;;;23.76;53.96;99502.84;4481894;32;32642;-86
2023/08/15 01:21:08;;;;;;;7.07;4.68;;;;;;;23.86;53.92;99495.41;4481550;32;33843;-86
2023/08/15 01:23:45;;;;;;;9.18;4.78;;;;;;;23.74;54.72;99500.22;4482701;32;34977;-86
2023/08/15 01:26:13;;;;;;;9.43;4.35;;;;;;;23.76;54.59;99497.53;4496759;31;33899;-86
2023/08/15 01:28:40;;;;;;;9.48;4.75;;;;;;;23.74;54.69;99504.66;4498477;31;33002;-86
2023/08/15 01:31:20;;;;;;;7.62;5.03;;;;;;;23.70;54.79;99498.59;4497069;31;34626;-87
2023/08/15 01:33:47;;;;;;;6.70;4.68;;;;;;;23.49;55.64;99505.50;4498115;31;35013;-86
2023/08/15 01:36:44;;;;;;;8.70;4.85;;;;;;;23.47;55.55;99511.75;4498266;31;34678;-86
2023/08/15 01:39:14;;;;;;;8.27;4.45;;;;;;;23.51;55.33;99508.06;4480050;31;33314;-87
2023/08/15 01:41:44;;;;;;;7.70;4.50;;;;;;;23.61;55.17;99503.34;4485749;31;33844;-86
2023/08/15 01:44:13;;;;;;;7.35;4.82;;;;;;;23.51;55.44;99500.13;4481285;32;34325;-86
2023/08/15 01:46:41;;;;;;;8.38;4.40;;;;;;;23.53;55.24;99504.47;4481571;32;34027;-86
2023/08/15 01:49:08;;;;;;;7.53;4.22;;;;;;;23.45;55.56;99509.16;4483595;32;33111;-86
2023/08/15 01:51:36;;;;;;;8.65;5.10;;;;;;;23.49;55.54;99502.84;4496124;31;33592;-87
2023/08/15 01:54:03;;;;;;;7.68;4.20;;;;;;;23.41;55.80;99499.59;4499968;31;34104;-86
2023/08/15 01:56:31;;;;;;;7.20;4.12;;;;;;;23.52;55.52;99496.56;4499252;31;33769;-86
2023/08/15 01:58:59;;;;;;;7.10;4.55;;;;;;;23.51;55.49;99494.84;4498684;31;33425;-86
2023/08/15 02:01:27;;;;;;;10.10;5.43;;;;;;;23.31;55.87;99506.97;4489393;31;34157;-86
2023/08/15 02:03:54;;;;;;;7.62;5.05;;;;;;;23.24;56.13;99502.81;4484267;32;33796;-86
2023/08/15 02:06:22;;;;;;;7.35;4.80;;;;;;;23.39;55.87;99504.06;4484445;32;34570;-86
2023/08/15 02:08:49;;;;;;;9.63;5.40;;;;;;;23.35;56.18;99497.16;4484481;32;34289;-86
2023/08/15 02:11:17;;;;;;;8.85;5.35;;;;;;;23.35;56.30;99506.88;4493865;31;33825;-86
2023/08/15 02:13:45;;;;;;;9.60;5.05;;;;;;;23.28;56.31;99491.22;4500003;31;33870;-86
2023/08/15 02:16:12;;;;;;;7.60;4.60;;;;;;;23.35;56.18;99502.47;4500562;31;33852;-86
2023/08/15 02:18:40;;;;;;;8.50;4.60;;;;;;;23.26;56.22;99498.34;4499227;31;32985;-86
2023/08/15 02:21:09;;;;;;;8.43;4.05;;;;;;;23.26;55.96;99493.06;4491522;31;34663;-86
2023/08/15 02:23:37;;;;;;;11.68;4.60;;;;;;;23.32;56.05;99491.97;4484470;32;33680;-86
2023/08/15 02:26:04;;;;;;;8.55;4.97;;;;;;;23.26;56.27;99489.53;4488118;31;33661;-86
2023/08/15 02:28:32;;;;;;;9.02;4.78;;;;;;;23.30;56.25;99499.97;4499908;31;33667;-86
2023/08/15 02:30:59;;;;;;;8.90;5.03;;;;;;;23.34;55.47;99490.16;4499805;31;33908;-86
2023/08/15 02:33:27;;;;;;;6.70;3.95;;;;;;;23.45;55.17;99490.66;4500278;31;34983;-86
2023/08/15 02:35:55;;;;;;;8.15;4.25;;;;;;;23.50;54.73;99488.69;4497770;31;34157;-86
2023/08/15 02:38:23;;;;;;;11.30;4.28;;;;;;;23.48;55.12;99497.59;4484454;32;33303;-86
2023/08/15 02:40:51;;;;;;;7.32;4.68;;;;;;;23.46;54.52;99492.38;4484364;32;33115;-86
2023/08/15 02:43:18;;;;;;;6.70;4.15;;;;;;;23.69;53.96;99486.28;4483910;32;34230;-87
2023/08/15 02:45:46;;;;;;;6.47;4.45;;;;;;;23.71;53.89;99489.72;4485703;31;34979;-86
2023/08/15 02:48:13;;;;;;;6.95;4.82;;;;;;;23.47;54.56;99490.59;4484495;32;33352;-87
2023/08/15 02:50:42;;;;;;;8.48;4.53;;;;;;;23.48;54.73;99497.59;4483637;32;33982;-86
2023/08/15 02:53:09;;;;;;;6.68;4.43;;;;;;;23.46;55.40;99488.88;4484042;32;33854;-86
2023/08/15 02:55:36;;;;;;;8.27;4.45;;;;;;;23.46;55.31;99491.50;4486080;31;34286;-86
2023/08/15 02:58:05;;;;;;;7.07;4.53;;;;;;;23.66;54.24;99488.16;4499328;31;33444;-86
2023/08/15 03:00:35;;;;;;;9.30;4.78;;;;;;;23.41;54.83;99488.13;4499486;31;33730;-86
2023/08/15 03:03:03;;;;;;;8.00;4.28;;;;;;;23.58;53.85;99491.06;4499732;31;34190;-86
2023/08/15 03:05:30;;;;;;;10.18;4.47;;;;;;;23.63;54.08;99488.25;4498857;31;33736;-86
2023/08/15 03:07:58;;;;;;;6.72;4.10;;;;;;;23.70;54.02;99484.50;4499722;31;33523;-86
2023/08/15 03:10:25;;;;;;;6.95;4.30;;;;;;;23.74;53.93;99484.34;4500000;31;34148;-86
2023/08/15 03:12:53;;;;;;;7.35;4.15;;;;;;;23.83;53.35;99490.22;4499823;31;33693;-86
2023/08/15 03:15:20;;;;;;;6.25;4.32;;;;;;;23.67;53.85;99490.75;4499012;31;34101;-86
2023/08/15 03:17:48;;;;;;;7.50;4.22;;;;;;;23.74;53.95;99486.12;4485960;31;33737;-86
2023/08/15 03:20:16;;;;;;;7.55;4.37;;;;;;;23.84;53.38;99481.38;4484346;32;33567;-86
2023/08/15 03:22:44;;;;;;;7.40;4.50;;;;;;;23.75;53.62;99480.78;4484586;31;34000;-86
2023/08/15 03:25:11;;;;;;;9.23;4.60;;;;;;;23.73;53.48;99481.75;4484041;31;34377;-86
2023/08/15 03:27:39;;;;;;;6.97;4.30;;;;;;;23.76;53.62;99477.22;4482916;32;32969;-86
2023/08/15 03:30:07;;;;;;;6.80;4.15;;;;;;;23.49;54.63;99478.19;4483949;32;34740;-87
2023/08/15 03:32:35;;;;;;;7.45;4.20;;;;;;;23.81;53.37;99485.00;4493163;31;33706;-88
2023/08/15 03:35:03;;;;;;;8.45;4.55;;;;;;;23.56;53.65;99482.31;4482367;31;35201;-87
2023/08/15 03:37:31;;;;;;;6.47;4.00;;;;;;;23.64;53.66;99482.03;4483994;32;34120;-87
2023/08/15 03:39:58;;;;;;;7.75;4.35;;;;;;;23.65;53.59;99487.28;4484117;32;34194;-86
2023/08/15 03:42:26;;;;;;;6.72;4.22;;;;;;;23.59;53.82;99484.00;4492546;31;34188;-87
2023/08/15 03:44:54;;;;;;;6.80;4.75;;;;;;;23.73;53.59;99487.91;4499255;31;34065;-86
2023/08/15 03:47:21;;;;;;;8.93;4.75;;;;;;;23.64;53.93;99482.94;4499293;31;33088;-87
2023/08/15 03:49:49;;;;;;;7.60;4.22;;;;;;;23.37;54.55;99484.72;4499423;31;34783;-86
2023/08/15 03:52:17;;;;;;;9.35;4.10;;;;;;;23.52;54.26;99478.03;4491411;31;34576;-86
2023/08/15 03:54:44;;;;;;;7.30;4.55;;;;;;;23.49;54.58;99488.75;4483633;32;34491;-88
2023/08/15 03:57:12;;;;;;;12.73;4.65;;;;;;;23.71;54.09;99483.59;4482711;32;32065;-86
2023/08/15 03:59:39;;;;;;;7.62;4.37;;;;;;;23.72;54.43;99490.63;4483466;32;33909;-86
2023/08/15 04:02:07;;;;;;;6.82;4.15;;;;;;;23.80;53.43;99488.56;4483806;31;33774;-87
2023/08/15 04:04:35;;;;;;;9.55;4.50;;;;;;;23.78;53.75;99493.91;4483399;32;34661;-86
2023/08/15 04:07:04;;;;;;;7.07;4.72;;;;;;;23.80;53.73;99496.50;4483875;32;33577;-86
2023/08/15 04:09:31;;;;;;;9.05;4.75;;;;;;;23.72;54.04;99493.28;4483468;32;34017;-86
2023/08/15 04:11:59;;;;;;;8.50;4.32;;;;;;;23.62;54.59;99497.97;4482746;31;33942;-86
2023/08/15 04:14:27;;;;;;;6.57;4.68;;;;;;;23.64;54.42;99496.16;4486069;31;33710;-87
2023/08/15 04:16:55;;;;;;;7.37;4.45;;;;;;;23.73;53.88;99493.19;4483352;31;33701;-86
2023/08/15 04:19:22;;;;;;;7.60;4.35;;;;;;;23.57;54.37;99502.59;4483592;32;33844;-86
2023/08/15 04:21:50;;;;;;;10.70;4.57;;;;;;;23.59;54.32;99495.44;4485999;31;35076;-86
2023/08/15 04:24:19;;;;;;;7.68;4.12;;;;;;;23.87;53.68;99495.38;4483172;32;33580;-87
2023/08/15 04:26:47;;;;;;;7.30;4.65;;;;;;;23.75;54.11;99504.63;4483392;32;33525;-85
2023/08/15 04:29:14;;;;;;;8.55;4.37;;;;;;;23.89;54.04;99508.53;4483463;32;34611;-87
2023/08/15 04:31:42;;;;;;;9.50;4.95;;;;;;;23.84;54.11;99506.06;4493293;31;34134;-86
2023/08/15 04:34:09;;;;;;;9.05;4.15;;;;;;;24.13;53.52;99507.66;4496487;31;33919;-87
2023/08/15 04:36:43;;;;;;;8.50;4.60;;;;;;;24.47;52.96;99511.69;4499390;31;33183;-86
2023/08/15 04:39:11;;;;;;;10.40;4.75;;;;;;;24.56;52.56;99505.19;4497829;31;33538;-86
2023/08/15 04:41:39;;;;;;;6.03;4.32;;;;;;;24.86;52.31;99508.41;4483887;31;33622;-87
2023/08/15 04:44:06;;;;;;;7.05;4.70;;;;;;;25.35;50.82;99511.72;4483508;32;33971;-87
2023/08/15 04:46:34;;;;;;;6.10;4.25;;;;;;;24.89;52.27;99514.44;4483401;32;33069;-87
2023/08/15 04:49:02;;;;;;;5.15;3.83;;;;;;;25.20;51.18;99514.09;4484981;31;34877;-86
2023/08/15 04:51:29;;;;;;;6.40;4.03;;;;;;;25.50;50.87;99515.53;4481953;32;34117;-87
2023/08/15 04:53:57;;;;;;;10.50;4.50;;;;;;;25.66;50.39;99514.78;4483355;32;33822;-86
2023/08/15 04:56:25;;;;;;;8.98;4.18;;;;;;;25.84;50.17;99509.62;4483438;32;33588;-86
2023/08/15 04:58:52;;;;;;;8.18;4.62;;;;;;;26.03;49.54;99507.03;4496643;31;33555;-87
2023/08/15 05:01:20;;;;;;;7.87;4.28;;;;;;;25.92;49.29;99518.97;4498887;31;34093;-87
2023/08/15 05:03:48;;;;;;;7.97;4.72;;;;;;;26.16;49.08;99506.37;4498836;31;34404;-86
2023/08/15 05:06:16;;;;;;;7.87;4.30;;;;;;;26.01;49.24;99519.50;4497406;31;33448;-87
2023/08/15 05:08:44;;;;;;;7.03;3.83;;;;;;;26.62;48.56;99517.53;4486917;31;34096;-87
2023/08/15 05:11:11;;;;;;;7.80;4.30;;;;;;;26.71;48.36;99523.34;4483017;31;33754;-87
2023/08/15 05:13:39;;;;;;;9.43;3.92;;;;;;;26.81;47.92;99517.53;4483037;32;34061;-87
2023/08/15 05:16:07;;;;;;;9.50;5.30;;;;;;;27.10;47.86;99510.78;4483193;32;33605;-87
2023/08/15 05:18:35;;;;;;;7.12;4.15;;;;;;;27.03;47.88;99517.34;4493809;31;34657;-87
2023/08/15 05:21:02;;;;;;;9.05;4.03;;;;;;;27.34;46.48;99514.03;4498614;31;34092;-87
2023/08/15 05:23:30;;;;;;;7.72;3.90;;;;;;;27.89;46.46;99515.72;4497483;31;33986;-87
2023/08/15 05:25:58;;;;;;;7.35;3.95;;;;;;;28.12;45.02;99512.66;4498612;31;33574;-87
2023/08/15 05:28:25;;;;;;;7.25;4.18;;;;;;;27.89;45.84;99513.03;4498125;31;34557;-87
2023/08/15 05:30:53;;;;;;;6.28;4.18;;;;;;;28.07;44.99;99513.84;4498544;31;34034;-86
2023/08/15 05:33:20;;;;;;;6.87;4.20;;;;;;;27.87;45.73;99517.56;4497320;31;33151;-87
2023/08/15 05:35:48;;;;;;;11.48;4.07;;;;;;;28.12;44.62;99518.00;4498507;31;33578;-87
2023/08/15 05:38:17;;;;;;;8.25;4.37;;;;;;;27.94;44.92;99520.78;4490031;31;33590;-87
2023/08/15 05:40:47;;;;;;;8.68;3.95;;;;;;;28.01;45.77;99523.03;4482491;32;34140;-87
2023/08/15 05:43:14;;;;;;;6.05;3.70;;;;;;;27.93;45.30;99530.59;4482442;32;34811;-87
2023/08/15 05:45:45;;;;;;;9.27;3.90;;;;;;;27.80;46.23;99522.34;4482697;32;33810;-87
2023/08/15 05:48:13;;;;;;;8.80;3.87;;;;;;;27.34;46.48;99526.50;4490188;31;34082;-86
2023/08/15 05:50:40;;;;;;;11.15;4.53;;;;;;;27.13;46.95;99525.78;4489426;31;33673;-87
2023/08/15 05:53:08;;;;;;;6.35;3.62;;;;;;;26.62;48.07;99540.62;4482428;32;34313;-86
2023/08/15 05:55:35;;;;;;;7.53;4.12;;;;;;;26.80;48.51;99536.22;4494010;31;34167;-86
2023/08/15 05:58:03;;;;;;;8.95;4.87;;;;;;;26.71;48.34;99537.53;4483142;31;33895;-86
2023/08/15 06:00:31;;;;;;;9.07;4.35;;;;;;;26.40;49.63;99532.75;4481720;32;33969;-86
2023/08/15 06:02:58;;;;;;;7.85;4.37;;;;;;;27.19;48.07;99529.94;4490874;31;33220;-87
2023/08/15 06:05:29;;;;;;;7.65;4.07;;;;;;;26.85;48.13;99521.75;4483444;31;33463;-86
2023/08/15 06:07:57;;;;;;;7.45;4.28;;;;;;;26.99;48.04;99521.09;4481983;32;32675;-88
2023/08/15 06:10:25;;;;;;;7.37;3.55;;;;;;;26.78;47.80;99522.13;4482077;32;35223;-86
2023/08/15 06:12:52;;;;;;;5.78;3.55;;;;;;;26.68;48.10;99519.94;4482150;32;33189;-86
2023/08/15 06:15:20;;;;;;;6.45;4.25;;;;;;;26.59;48.78;99523.00;4481284;31;34177;-86
2023/08/15 06:17:47;;;;;;;11.68;3.90;;;;;;;26.89;48.81;99522.47;4488370;31;33442;-86
2023/08/15 06:20:15;;;;;;;7.55;3.87;;;;;;;26.72;48.37;99514.47;4491365;31;33806;-87
2023/08/15 06:22:43;;;;;;;6.60;3.60;;;;;;;27.11;47.90;99522.31;4497940;31;34506;-86
2023/08/15 06:25:12;;;;;;;6.45;4.20;;;;;;;26.87;47.77;99524.38;4497710;31;33501;-82
2023/08/15 06:27:40;;;;;;;9.07;3.92;;;;;;;26.75;48.34;99522.31;4490257;31;33888;-84
2023/08/15 06:30:08;;;;;;;10.20;3.85;;;;;;;26.76;47.64;99521.34;4488104;31;34206;-83
2023/08/15 06:32:36;;;;;;;6.93;4.30;;;;;;;26.47;48.96;99530.72;4481138;32;33776;-83
2023/08/15 06:35:05;;;;;;;8.30;4.03;;;;;;;27.16;47.43;99517.62;4483074;32;34038;-83
2023/08/15 06:37:32;;;;;;;7.60;3.90;;;;;;;26.84;47.23;99529.81;4491234;31;34771;-83
2023/08/15 06:40:00;;;;;;;7.82;4.28;;;;;;;26.75;47.67;99528.47;4485222;31;34683;-82
2023/08/15 06:42:28;;;;;;;6.15;3.83;;;;;;;26.60;47.00;99532.72;4482540;32;33059;-85
2023/08/15 06:45:06;;;;;;;9.00;4.07;;;;;;;26.83;48.23;99530.78;4480354;32;33484;-80
2023/08/15 06:47:33;;;;;;;7.50;4.30;;;;;;;27.08;46.83;99525.97;4483130;31;33675;-87
2023/08/15 06:50:01;;;;;;;8.45;4.50;;;;;;;27.11;47.18;99522.31;4487705;31;33951;-81
2023/08/15 06:52:28;;;;;;;10.25;3.90;;;;;;;27.31;47.21;99524.84;4489059;31;34491;-80
2023/08/15 06:54:57;;;;;;;7.72;4.15;;;;;;;27.63;46.41;99527.69;4483561;32;33528;-87
2023/08/15 06:57:24;;;;;;;8.48;4.12;;;;;;;27.91;47.08;99535.13;4478911;31;34096;-82
2023/08/15 06:59:52;;;;;;;8.88;3.95;;;;;;;28.13;44.80;99525.03;4499156;31;34007;-81
2023/08/15 07:02:20;;;;;;;8.38;4.12;;;;;;;27.98;45.67;99531.19;4494980;31;34055;-85
2023/08/15 07:04:50;;;;;;;7.90;4.18;;;;;;;28.03;44.63;99529.13;4479087;31;33179;-92
2023/08/15 07:07:18;;;;;;;9.05;4.43;;;;;;;27.88;44.40;99524.62;4483434;31;34061;-81
2023/08/15 07:09:46;;;;;;;8.30;3.85;;;;;;;27.93;44.71;99525.25;4487216;31;34362;-89
2023/08/15 07:12:17;;;;;;;9.35;4.03;;;;;;;28.04;44.26;99528.22;4468110;32;33762;-81
2023/08/15 07:14:46;;;;;;;11.68;4.07;;;;;;;28.19;44.30;99517.69;4482500;31;33557;-82
2023/08/15 07:17:13;;;;;;;9.52;4.20;;;;;;;28.64;44.26;99524.09;4491149;31;33760;-82
2023/08/15 07:19:41;;;;;;;6.03;3.60;;;;;;;28.79;44.72;99526.78;4482123;31;34439;-89
2023/08/15 07:22:09;;;;;;;9.95;4.12;;;;;;;29.09;42.31;99513.53;4494861;31;33778;-83
2023/08/15 07:24:36;;;;;;;8.80;4.72;;;;;;;29.18;42.67;99514.81;4467866;32;35927;-91
2023/08/15 07:27:04;;;;;;;9.20;3.97;;;;;;;29.36;42.96;99515.53;4473191;32;34706;-82
2023/08/15 07:29:31;;;;;;;8.02;4.18;;;;;;;28.55;43.21;99521.00;4484278;31;34099;-84
2023/08/15 07:31:59;;;;;;;12.05;4.35;;;;;;;29.00;42.75;99524.72;4483477;32;34220;-84
2023/08/15 07:34:26;;;;;;;7.47;4.43;;;;;;;28.79;42.57;99518.78;4483594;32;33362;-82
2023/08/15 07:36:54;;;;;;;6.20;4.10;;;;;;;28.59;42.74;99519.88;4482660;31;33146;-81
2023/08/15 07:39:22;;;;;;;10.50;4.07;;;;;;;28.36;43.82;99520.28;4483487;32;33811;-81
2023/08/15 07:41:50;;;;;;;10.13;4.25;;;;;;;28.52;43.38;99513.16;4492259;31;33782;-81
2023/08/15 07:44:19;;;;;;;9.02;4.75;;;;;;;28.69;43.76;99524.72;4498899;31;32639;-81
2023/08/15 07:46:47;;;;;;;8.18;4.82;;;;;;;28.77;44.78;99518.00;4497941;31;34892;-81
2023/08/15 07:49:14;;;;;;;9.77;4.53;;;;;;;28.89;43.52;99518.25;4499058;31;34767;-82
2023/08/15 07:51:42;;;;;;;11.38;4.80;;;;;;;28.67;43.70;99516.78;4492581;31;33774;-83
2023/08/15 07:54:10;;;;;;;9.77;4.93;;;;;;;28.98;43.86;99523.97;4483383;32;34754;-83
2023/08/15 07:56:38;;;;;;;12.55;4.37;;;;;;;28.91;44.06;99524.38;4481983;32;34631;-82
2023/08/15 07:59:06;;;;;;;8.00;4.78;;;;;;;29.18;42.46;99519.28;4483176;32;33958;-82
2023/08/15 08:01:33;;;;;;;6.50;4.15;;;;;;;29.46;42.62;99522.03;4487731;31;33693;-82
2023/08/15 08:04:01;;;;;;;14.30;4.50;;;;;;;29.28;44.25;99521.34;4499284;31;33240;-82
2023/08/15 08:06:29;;;;;;;9.15;4.57;;;;;;;29.35;43.89;99521.81;4498825;31;33981;-82
2023/08/15 08:08:59;;;;;;;8.70;4.65;;;;;;;29.48;43.14;99521.97;4483398;32;34245;-82
2023/08/15 08:11:27;;;;;;;8.00;4.60;;;;;;;29.14;42.81;99523.94;4483213;32;35025;-84
2023/08/15 08:13:54;;;;;;;12.77;4.53;;;;;;;29.32;42.43;99524.66;4482928;32;33376;-83
2023/08/15 08:16:21;;;;;;;8.15;4.40;;;;;;;28.71;43.94;99526.34;4482096;32;33546;-83
2023/08/15 08:18:49;;;;;;;6.43;4.35;;;;;;;29.30;43.92;99523.91;4497463;31;34102;-82
2023/08/15 08:21:17;;;;;;;9.50;4.75;;;;;;;29.25;42.09;99520.66;4498748;31;33774;-81
2023/08/15 08:23:44;;;;;;;9.52;5.30;;;;;;;29.03;43.38;99519.22;4499009;31;32988;-82
2023/08/15 08:26:12;;;;;;;8.85;4.90;;;;;;;28.67;43.94;99519.47;4498706;31;34035;-81
2023/08/15 08:28:39;;;;;;;8.30;4.25;;;;;;;29.27;44.20;99521.41;4484684;31;33497;-82
2023/08/15 08:31:07;;;;;;;8.70;4.80;;;;;;;29.43;44.15;99516.88;4482574;32;33925;-82
2023/08/15 08:33:35;;;;;;;7.25;4.78;;;;;;;29.98;44.31;99510.91;4482829;32;33353;-87
2023/08/15 08:36:02;;;;;;;11.48;4.35;;;;;;;29.77;43.09;99506.88;4483243;32;33777;-85
2023/08/15 08:38:30;;;;;;;11.80;4.65;;;;;;;29.93;43.35;99509.44;4483141;32;33772;-83
2023/08/15 08:40:58;;;;;;;9.57;4.32;;;;;;;29.77;41.81;99512.22;4483194;31;33539;-81
2023/08/15 08:43:26;;;;;;;8.25;4.40;;;;;;;29.84;42.55;99502.88;4483202;32;33014;-81
2023/08/15 08:45:58;;;;;;;9.05;4.35;;;;;;;29.66;42.21;99502.16;4482038;32;34780;-91
2023/08/15 08:48:25;;;;;;;14.18;4.50;;;;;;;29.91;42.58;99504.22;4482876;32;33875;-89
2023/08/15 08:50:54;;;;;;;8.60;3.95;;;;;;;29.94;42.72;99509.38;4495432;31;34159;-80
2023/08/15 08:53:22;;;;;;;8.95;4.43;;;;;;;29.92;41.96;99508.59;4498788;31;33208;-82
2023/08/15 08:55:50;;;;;;;11.80;5.00;;;;;;;29.89;41.62;99511.47;4487439;31;33748;-81
2023/08/15 08:58:18;;;;;;;6.28;3.70;;;;;;;29.65;42.29;99512.97;4482599;32;34694;-83
2023/08/15 09:00:46;;;;;;;10.93;3.65;;;;;;;29.58;40.95;99510.66;4495006;31;33511;-82
2023/08/15 09:03:14;;;;;;;9.73;4.32;;;;;;;29.54;41.57;99502.88;4497136;31;33633;-84
2023/08/15 09:05:41;;;;;;;9.07;3.92;;;;;;;29.68;41.00;99499.41;4497336;31;33703;-81
2023/08/15 09:08:09;;;;;;;5.68;3.80;;;;;;;29.87;40.24;99497.34;4497222;31;35078;-84
2023/08/15 09:10:37;;;;;;;7.15;4.30;;;;;;;29.77;39.84;99496.16;4486851;31;34596;-83
2023/08/15 09:13:04;;;;;;;7.62;3.90;;;;;;;30.00;41.98;99506.34;4482700;32;33340;-79
2023/08/15 09:15:32;;;;;;;9.13;3.85;;;;;;;30.24;39.63;99501.28;4481219;31;34322;-83
2023/08/15 09:18:04;;;;;;;8.15;3.90;;;;;;;30.38;39.06;99497.72;4466560;32;34797;-82
2023/08/15 09:20:33;;;;;;;7.25;3.70;;;;;;;30.31;38.50;99501.75;4476268;31;34705;-83
2023/08/15 09:23:00;;;;;;;9.00;3.80;;;;;;;30.32;39.66;99495.44;4481557;31;33270;-83
2023/08/15 09:25:29;;;;;;;6.28;3.50;;;;;;;30.38;38.02;99494.19;4497361;31;33542;-83
2023/08/15 09:27:59;;;;;;;6.15;3.72;;;;;;;30.73;38.34;99497.28;4496642;31;34927;-81
2023/08/15 09:30:27;;;;;;;7.57;4.10;;;;;;;30.87;38.54;99494.56;4497992;31;33606;-82
2023/08/15 09:32:55;;;;;;;7.35;3.65;;;;;;;31.21;36.66;99497.69;4497885;31;33536;-83
2023/08/15 09:35:22;;;;;;;10.90;4.03;;;;;;;31.27;37.57;99491.94;4493127;31;32560;-85
2023/08/15 09:37:50;;;;;;;7.32;3.83;;;;;;;30.89;36.58;99498.03;4484061;31;33855;-87
2023/08/15 09:40:22;;;;;;;8.18;4.10;;;;;;;30.92;37.02;99492.47;4481165;32;33688;-89
2023/08/15 09:42:51;;;;;;;8.15;3.90;;;;;;;30.69;36.96;99498.44;4482601;32;34302;-85
2023/08/15 09:45:19;;;;;;;9.18;3.90;;;;;;;30.54;37.08;99495.81;4482317;32;34810;-88
2023/08/15 09:47:46;;;;;;;9.38;4.22;;;;;;;30.57;38.46;99499.22;4480956;32;35000;-88
2023/08/15 09:50:15;;;;;;;11.12;3.92;;;;;;;30.46;37.48;99495.44;4482268;32;34873;-87
2023/08/15 09:52:44;;;;;;;7.78;4.32;;;;;;;30.75;37.80;99498.06;4482481;32;34575;-88
2023/08/15 09:55:16;;;;;;;9.90;4.30;;;;;;;30.67;37.12;99498.53;4482574;32;34358;-90
2023/08/15 09:57:44;;;;;;;9.63;4.20;;;;;;;30.75;36.53;99490.03;4481016;32;34131;-87
2023/08/15 10:00:12;;;;;;;7.22;3.87;;;;;;;31.08;38.08;99491.44;4482282;32;34007;-87
2023/08/15 10:02:59;;;;;;;7.90;3.60;;;;;;;31.11;36.63;99491.25;4482790;32;34906;-84
2023/08/15 10:05:32;;;;;;;9.80;4.00;;;;;;;31.50;38.10;99483.22;4480965;32;33896;-84
2023/08/15 10:08:00;;;;;;;5.78;3.72;;;;;;;31.62;36.80;99486.00;4467034;32;34276;-87
2023/08/15 10:10:30;;;;;;;7.53;3.58;;;;;;;31.24;36.15;99493.00;4466259;32;34286;-85
2023/08/15 10:12:58;;;;;;;6.47;4.03;;;;;;;31.41;35.51;99489.22;4467369;32;33118;-84
2023/08/15 10:15:26;;;;;;;7.25;4.30;;;;;;;31.63;35.01;99485.03;4469833;32;34000;-84
2023/08/15 10:17:55;;;;;;;9.57;3.95;;;;;;;31.95;34.62;99485.53;4467203;32;34794;-87
2023/08/15 10:20:23;;;;;;;12.20;4.05;;;;;;;31.90;34.98;99495.72;4468962;32;33806;-84
2023/08/15 10:22:54;;;;;;;7.50;3.87;;;;;;;32.12;36.69;99495.88;4468938;32;33110;-84
2023/08/15 10:25:27;;;;;;;7.65;3.97;;;;;;;32.30;34.89;99499.09;4467242;32;33932;-85
2023/08/15 10:27:56;;;;;;;6.72;4.10;;;;;;;32.26;31.71;99496.75;4468509;32;34047;-84
2023/08/15 10:30:30;;;;;;;8.30;4.18;;;;;;;32.05;31.54;99486.59;4478074;32;34295;-83
2023/08/15 10:33:00;;;;;;;9.20;3.55;;;;;;;31.99;32.61;99489.69;4484453;32;33074;-84
2023/08/15 10:35:32;;;;;;;9.35;3.67;;;;;;;32.49;30.98;99484.38;4484157;32;33996;-83
2023/08/15 10:38:12;;;;;;;7.47;3.90;;;;;;;32.58;34.26;99491.75;4483884;32;33661;-84
2023/08/15 10:40:41;;;;;;;7.07;3.72;;;;;;;32.66;33.80;99494.75;4484151;32;33863;-86
2023/08/15 10:43:11;;;;;;;8.60;4.05;;;;;;;32.69;30.60;99483.75;4482794;32;33609;-84
2023/08/15 10:45:41;;;;;;;9.13;3.85;;;;;;;32.87;30.00;99485.09;4483771;32;33594;-85
2023/08/15 10:48:09;;;;;;;9.48;3.92;;;;;;;32.89;31.92;99475.09;4482592;32;33936;-85
2023/08/15 10:50:45;;;;;;;7.07;4.28;;;;;;;32.99;29.80;99469.06;4483855;32;33980;-83
2023/08/15 10:53:14;;;;;;;8.43;4.00;;;;;;;32.63;30.49;99465.44;4484109;32;33685;-85
2023/08/15 10:55:46;;;;;;;9.23;4.03;;;;;;;32.72;31.39;99467.44;4484084;32;33914;-85
2023/08/15 10:58:14;;;;;;;11.23;4.18;;;;;;;32.79;31.27;99468.69;4482700;32;34779;-84
2023/08/15 11:00:41;;;;;;;9.98;3.97;;;;;;;32.66;32.75;99470.59;4482670;32;34661;-85
2023/08/15 11:03:09;;;;;;;7.50;3.90;;;;;;;32.88;33.46;99470.72;4482923;32;33163;-85
2023/08/15 11:05:37;;;;;;;6.97;3.80;;;;;;;32.99;32.54;99467.22;4482052;32;33873;-83
2023/08/15 11:08:15;;;;;;;7.93;4.20;;;;;;;33.07;30.63;99464.84;4468344;32;34154;-85
2023/08/15 11:10:48;;;;;;;9.02;4.15;;;;;;;33.15;29.91;99469.63;4468343;32;34030;-86
2023/08/15 11:13:16;;;;;;;7.50;4.30;;;;;;;32.89;32.86;99469.72;4466921;32;33180;-86
2023/08/15 11:15:45;;;;;;;7.40;4.03;;;;;;;32.86;34.94;99471.78;4468330;32;34667;-84
2023/08/15 11:18:23;;;;;;;8.77;4.12;;;;;;;32.80;35.13;99464.19;4467040;32;34279;-84
2023/08/15 11:20:51;;;;;;;9.55;4.20;;;;;;;33.17;30.99;99459.63;4467233;32;33893;-86
2023/08/15 11:23:20;;;;;;;8.02;4.20;;;;;;;33.04;33.89;99457.00;4468285;32;33232;-84
2023/08/15 11:25:48;;;;;;;6.93;3.85;;;;;;;32.99;31.47;99456.47;4468223;32;33504;-84
2023/08/15 11:28:16;;;;;;;10.30;3.97;;;;;;;33.13;31.67;99450.94;4467949;32;34734;-84
2023/08/15 11:30:43;;;;;;;6.50;4.30;;;;;;;33.02;31.86;99453.56;4480104;32;35036;-86
2023/08/15 11:33:11;;;;;;;8.75;4.30;;;;;;;32.50;35.09;99456.56;4483918;32;33308;-86
2023/08/15 11:35:39;;;;;;;8.35;4.25;;;;;;;32.67;32.92;99453.50;4483699;32;34080;-85
2023/08/15 11:38:10;;;;;;;6.15;3.92;;;;;;;32.80;32.55;99454.28;4483626;32;33808;-86